sensor_id;sensor_type;location;lat;lon;timestamp;pressure;altitude;pressure_sealevel;temperature;humidity
70921;BME280;58572;48.110;19.838;2023-12-28T00:02:05;98584.84;;;5.59;83.95
70921;BME280;58572;48.110;19.838;2023-12-28T00:04:33;98588.13;;;5.50;84.00
70921;BME280;58572;48.110;19.838;2023-12-28T00:07:02;98580.97;;;6.25;80.96
70921;BME280;58572;48.110;19.838;2023-12-28T00:09:30;98572.19;;;6.06;81.75
70921;BME280;58572;48.110;19.838;2023-12-28T00:11:58;98577.38;;;5.96;82.12
70921;BME280;58572;48.110;19.838;2023-12-28T00:14:25;98580.88;;;5.85;82.38
70921;BME280;58572;48.110;19.838;2023-12-28T00:16:52;98587.19;;;5.79;82.83
70921;BME280;58572;48.110;19.838;2023-12-28T00:19:20;98565.50;;;5.39;83.53
70921;BME280;58572;48.110;19.838;2023-12-28T00:21:49;98579.94;;;5.80;82.29
70921;BME280;58572;48.110;19.838;2023-12-28T00:24:19;98579.81;;;5.74;82.88
70921;BME280;58572;48.110;19.838;2023-12-28T00:26:46;98575.38;;;5.92;82.38
70921;BME280;58572;48.110;19.838;2023-12-28T00:29:13;98577.22;;;5.56;82.63
70921;BME280;58572;48.110;19.838;2023-12-28T00:31:40;98575.47;;;5.50;82.17
70921;BME280;58572;48.110;19.838;2023-12-28T00:34:08;98586.38;;;5.78;81.68
70921;BME280;58572;48.110;19.838;2023-12-28T00:36:35;98590.28;;;5.18;82.86
70921;BME280;58572;48.110;19.838;2023-12-28T00:39:03;98586.09;;;5.22;84.02
70921;BME280;58572;48.110;19.838;2023-12-28T00:41:30;98598.81;;;4.73;84.76
70921;BME280;58572;48.110;19.838;2023-12-28T00:43:57;98556.19;;;4.70;83.67
70921;BME280;58572;48.110;19.838;2023-12-28T00:46:26;98607.59;;;4.68;84.71
70921;BME280;58572;48.110;19.838;2023-12-28T00:48:53;98613.50;;;4.59;85.55
70921;BME280;58572;48.110;19.838;2023-12-28T00:51:22;98612.84;;;4.63;85.59
70921;BME280;58572;48.110;19.838;2023-12-28T00:53:54;98617.13;;;4.53;86.77
70921;BME280;58572;48.110;19.838;2023-12-28T00:56:31;98612.00;;;4.63;86.22
70921;BME280;58572;48.110;19.838;2023-12-28T00:59:04;98625.56;;;4.86;85.23
70921;BME280;58572;48.110;19.838;2023-12-28T01:01:36;98623.34;;;4.83;85.68
70921;BME280;58572;48.110;19.838;2023-12-28T01:04:14;98622.38;;;5.07;84.52
70921;BME280;58572;48.110;19.838;2023-12-28T01:06:46;98603.69;;;4.94;85.14
70921;BME280;58572;48.110;19.838;2023-12-28T01:09:19;98621.81;;;5.17;84.58
70921;BME280;58572;48.110;19.838;2023-12-28T01:12:05;98631.88;;;5.63;83.38
70921;BME280;58572;48.110;19.838;2023-12-28T01:14:37;98618.41;;;5.63;84.01
70921;BME280;58572;48.110;19.838;2023-12-28T01:17:10;98624.56;;;5.29;85.26
70921;BME280;58572;48.110;19.838;2023-12-28T01:19:44;98563.56;;;5.16;84.03
70921;BME280;58572;48.110;19.838;2023-12-28T01:22:17;98612.88;;;5.82;83.61
70921;BME280;58572;48.110;19.838;2023-12-28T01:24:49;98611.25;;;5.81;83.35
70921;BME280;58572;48.110;19.838;2023-12-28T01:27:23;98612.84;;;5.35;86.06
70921;BME280;58572;48.110;19.838;2023-12-28T01:29:56;98611.13;;;5.87;83.81
70921;BME280;58572;48.110;19.838;2023-12-28T01:32:29;98613.94;;;5.45;85.31
70921;BME280;58572;48.110;19.838;2023-12-28T01:35:07;98611.63;;;6.07;82.43
70921;BME280;58572;48.110;19.838;2023-12-28T01:37:37;98612.19;;;5.51;84.82
70921;BME280;58572;48.110;19.838;2023-12-28T01:40:06;98613.75;;;5.94;82.10
70921;BME280;58572;48.110;19.838;2023-12-28T01:42:36;98608.56;;;5.16;85.92
70921;BME280;58572;48.110;19.838;2023-12-28T01:45:04;98601.06;;;6.06;82.24
70921;BME280;58572;48.110;19.838;2023-12-28T01:47:31;98610.97;;;5.24;85.40
70921;BME280;58572;48.110;19.838;2023-12-28T01:49:59;98606.31;;;5.77;82.47
70921;BME280;58572;48.110;19.838;2023-12-28T01:52:27;98593.66;;;5.66;82.57
70921;BME280;58572;48.110;19.838;2023-12-28T01:54:55;98595.66;;;5.71;82.43
70921;BME280;58572;48.110;19.838;2023-12-28T01:57:22;98575.00;;;5.00;84.22
70921;BME280;58572;48.110;19.838;2023-12-28T01:59:51;98595.97;;;4.98;84.80
70921;BME280;58572;48.110;19.838;2023-12-28T02:02:20;98604.16;;;4.91;84.25
70921;BME280;58572;48.110;19.838;2023-12-28T02:04:48;98604.06;;;4.68;85.69
70921;BME280;58572;48.110;19.838;2023-12-28T02:07:15;98600.38;;;4.80;84.51
70921;BME280;58572;48.110;19.838;2023-12-28T02:09:43;98603.44;;;4.84;84.27
70921;BME280;58572;48.110;19.838;2023-12-28T02:12:10;98600.72;;;5.14;82.29
70921;BME280;58572;48.110;19.838;2023-12-28T02:14:37;98601.66;;;4.78;84.19
70921;BME280;58572;48.110;19.838;2023-12-28T02:17:13;98595.88;;;5.04;83.15
70921;BME280;58572;48.110;19.838;2023-12-28T02:19:47;98604.00;;;5.16;82.88
70921;BME280;58572;48.110;19.838;2023-12-28T02:22:16;98590.47;;;4.93;83.08
70921;BME280;58572;48.110;19.838;2023-12-28T02:25:06;98594.38;;;4.48;84.88
70921;BME280;58572;48.110;19.838;2023-12-28T02:27:34;98597.19;;;4.72;83.57
70921;BME280;58572;48.110;19.838;2023-12-28T02:30:03;98587.69;;;4.69;84.00
70921;BME280;58572;48.110;19.838;2023-12-28T02:32:40;98578.28;;;4.90;82.50
70921;BME280;58572;48.110;19.838;2023-12-28T02:35:17;98586.03;;;4.38;84.46
70921;BME280;58572;48.110;19.838;2023-12-28T02:37:48;98579.28;;;4.47;83.92
70921;BME280;58572;48.110;19.838;2023-12-28T02:40:21;98577.19;;;4.49;83.96
70921;BME280;58572;48.110;19.838;2023-12-28T02:42:49;98569.06;;;4.68;83.60
70921;BME280;58572;48.110;19.838;2023-12-28T02:45:17;98575.69;;;4.54;82.20
70921;BME280;58572;48.110;19.838;2023-12-28T02:47:44;98568.06;;;4.51;82.98
70921;BME280;58572;48.110;19.838;2023-12-28T02:50:12;98572.81;;;4.19;83.87
70921;BME280;58572;48.110;19.838;2023-12-28T02:52:39;98569.78;;;4.08;84.21
70921;BME280;58572;48.110;19.838;2023-12-28T02:55:06;98567.78;;;4.40;83.62
70921;BME280;58572;48.110;19.838;2023-12-28T02:57:35;98560.59;;;4.16;83.78
70921;BME280;58572;48.110;19.838;2023-12-28T03:00:05;98570.03;;;4.07;84.68
70921;BME280;58572;48.110;19.838;2023-12-28T03:02:35;98553.44;;;3.92;84.54
70921;BME280;58572;48.110;19.838;2023-12-28T03:05:03;98554.94;;;4.06;83.93
70921;BME280;58572;48.110;19.838;2023-12-28T03:07:31;98555.22;;;4.16;83.75
70921;BME280;58572;48.110;19.838;2023-12-28T03:09:58;98558.81;;;4.10;83.94
70921;BME280;58572;48.110;19.838;2023-12-28T03:12:26;98557.72;;;4.18;83.65
70921;BME280;58572;48.110;19.838;2023-12-28T03:14:55;98564.03;;;4.05;84.34
70921;BME280;58572;48.110;19.838;2023-12-28T03:17:22;98560.59;;;3.98;84.39
70921;BME280;58572;48.110;19.838;2023-12-28T03:19:50;98565.47;;;3.89;83.85
70921;BME280;58572;48.110;19.838;2023-12-28T03:22:17;98548.81;;;3.99;84.00
70921;BME280;58572;48.110;19.838;2023-12-28T03:24:44;98552.69;;;3.84;84.29
70921;BME280;58572;48.110;19.838;2023-12-28T03:27:11;98546.41;;;3.91;84.27
70921;BME280;58572;48.110;19.838;2023-12-28T03:29:39;98535.34;;;3.80;84.55
70921;BME280;58572;48.110;19.838;2023-12-28T03:32:09;98497.09;;;3.42;85.06
70921;BME280;58572;48.110;19.838;2023-12-28T03:34:37;98534.59;;;3.73;84.59
70921;BME280;58572;48.110;19.838;2023-12-28T03:37:04;98535.06;;;3.70;84.80
70921;BME280;58572;48.110;19.838;2023-12-28T03:39:31;98533.56;;;3.56;84.64
70921;BME280;58572;48.110;19.838;2023-12-28T03:41:59;98531.47;;;3.58;84.69
70921;BME280;58572;48.110;19.838;2023-12-28T03:44:26;98524.53;;;3.69;83.87
70921;BME280;58572;48.110;19.838;2023-12-28T03:46:53;98398.16;;;2.71;85.30
70921;BME280;58572;48.110;19.838;2023-12-28T03:49:23;98528.53;;;3.41;85.68
70921;BME280;58572;48.110;19.838;2023-12-28T03:51:51;98527.09;;;3.39;85.36
70921;BME280;58572;48.110;19.838;2023-12-28T03:54:19;98518.22;;;3.38;85.77
70921;BME280;58572;48.110;19.838;2023-12-28T03:56:46;98521.84;;;3.69;84.71
70921;BME280;58572;48.110;19.838;2023-12-28T03:59:14;98522.34;;;3.59;84.04
70921;BME280;58572;48.110;19.838;2023-12-28T04:01:42;98521.72;;;3.39;85.25
70921;BME280;58572;48.110;19.838;2023-12-28T04:04:09;98507.09;;;3.35;85.45
70921;BME280;58572;48.110;19.838;2023-12-28T04:06:38;98512.94;;;3.50;84.90
70921;BME280;58572;48.110;19.838;2023-12-28T04:09:07;98510.97;;;3.39;84.91
70921;BME280;58572;48.110;19.838;2023-12-28T04:11:34;98515.91;;;3.42;84.86
70921;BME280;58572;48.110;19.838;2023-12-28T04:14:01;98518.88;;;3.34;84.52
70921;BME280;58572;48.110;19.838;2023-12-28T04:16:28;98515.91;;;3.42;84.74
70921;BME280;58572;48.110;19.838;2023-12-28T04:18:55;98520.97;;;3.32;84.85
70921;BME280;58572;48.110;19.838;2023-12-28T04:21:22;98524.53;;;3.26;85.75
70921;BME280;58572;48.110;19.838;2023-12-28T04:23:51;98515.94;;;3.17;85.61
70921;BME280;58572;48.110;19.838;2023-12-28T04:26:18;98516.91;;;3.23;84.88
70921;BME280;58572;48.110;19.838;2023-12-28T04:28:46;98509.91;;;3.22;85.32
70921;BME280;58572;48.110;19.838;2023-12-28T04:31:13;98504.69;;;3.27;85.03
70921;BME280;58572;48.110;19.838;2023-12-28T04:33:40;98501.84;;;3.22;85.03
70921;BME280;58572;48.110;19.838;2023-12-28T04:36:08;98507.44;;;3.20;84.96
70921;BME280;58572;48.110;19.838;2023-12-28T04:38:36;98509.97;;;3.15;85.64
70921;BME280;58572;48.110;19.838;2023-12-28T04:41:05;98493.44;;;3.36;84.64
70921;BME280;58572;48.110;19.838;2023-12-28T04:43:33;98501.56;;;3.30;84.90
70921;BME280;58572;48.110;19.838;2023-12-28T04:46:02;98462.09;;;3.05;84.33
70921;BME280;58572;48.110;19.838;2023-12-28T04:48:30;98489.09;;;3.10;84.70
70921;BME280;58572;48.110;19.838;2023-12-28T04:50:57;98495.44;;;3.23;84.05
70921;BME280;58572;48.110;19.838;2023-12-28T04:53:25;98499.03;;;3.35;84.00
70921;BME280;58572;48.110;19.838;2023-12-28T04:55:52;98494.66;;;3.15;84.76
70921;BME280;58572;48.110;19.838;2023-12-28T04:58:21;98490.50;;;3.19;84.90
70921;BME280;58572;48.110;19.838;2023-12-28T05:00:48;98484.69;;;3.23;84.76
70921;BME280;58572;48.110;19.838;2023-12-28T05:03:15;98489.03;;;3.42;83.62
70921;BME280;58572;48.110;19.838;2023-12-28T05:05:42;98478.28;;;3.42;83.64
70921;BME280;58572;48.110;19.838;2023-12-28T05:08:09;98481.72;;;3.31;84.14
70921;BME280;58572;48.110;19.838;2023-12-28T05:10:37;98428.50;;;2.96;83.82
70921;BME280;58572;48.110;19.838;2023-12-28T05:13:04;98463.63;;;3.19;83.72
70921;BME280;58572;48.110;19.838;2023-12-28T05:15:33;98462.47;;;3.34;84.25
70921;BME280;58572;48.110;19.838;2023-12-28T05:18:00;98468.56;;;3.23;84.30
70921;BME280;58572;48.110;19.838;2023-12-28T05:20:27;98472.06;;;2.98;85.39
70921;BME280;58572;48.110;19.838;2023-12-28T05:22:54;98466.25;;;3.26;83.75
70921;BME280;58572;48.110;19.838;2023-12-28T05:25:21;98468.94;;;3.26;83.69
70921;BME280;58572;48.110;19.838;2023-12-28T05:27:48;98453.34;;;3.16;83.99
70921;BME280;58572;48.110;19.838;2023-12-28T05:30:16;98474.97;;;3.22;84.37
70921;BME280;58572;48.110;19.838;2023-12-28T05:32:44;98471.94;;;3.11;83.65
70921;BME280;58572;48.110;19.838;2023-12-28T05:35:11;98464.94;;;3.10;84.41
70921;BME280;58572;48.110;19.838;2023-12-28T05:37:38;98471.13;;;3.36;82.56
70921;BME280;58572;48.110;19.838;2023-12-28T05:40:06;98477.53;;;3.35;83.15
70921;BME280;58572;48.110;19.838;2023-12-28T05:42:35;98482.91;;;3.35;82.71
70921;BME280;58572;48.110;19.838;2023-12-28T05:45:03;98487.66;;;3.14;84.32
70921;BME280;58572;48.110;19.838;2023-12-28T05:47:30;98482.44;;;2.95;84.53
70921;BME280;58572;48.110;19.838;2023-12-28T05:49:59;98478.03;;;3.25;83.81
70921;BME280;58572;48.110;19.838;2023-12-28T05:52:28;98485.66;;;3.03;84.68
70921;BME280;58572;48.110;19.838;2023-12-28T05:54:55;98491.91;;;2.97;85.32
70921;BME280;58572;48.110;19.838;2023-12-28T05:57:22;98481.41;;;3.20;84.13
70921;BME280;58572;48.110;19.838;2023-12-28T05:59:52;98497.75;;;3.19;83.59
70921;BME280;58572;48.110;19.838;2023-12-28T06:02:19;98492.06;;;3.02;84.61
70921;BME280;58572;48.110;19.838;2023-12-28T06:04:47;98494.06;;;3.13;83.94
70921;BME280;58572;48.110;19.838;2023-12-28T06:07:15;98492.31;;;3.26;84.13
70921;BME280;58572;48.110;19.838;2023-12-28T06:09:42;98494.22;;;3.18;83.58
70921;BME280;58572;48.110;19.838;2023-12-28T06:12:11;98495.31;;;3.11;84.09
70921;BME280;58572;48.110;19.838;2023-12-28T06:14:39;98499.69;;;3.05;84.42
70921;BME280;58572;48.110;19.838;2023-12-28T06:17:06;98499.69;;;3.05;83.70
70921;BME280;58572;48.110;19.838;2023-12-28T06:19:33;98502.94;;;3.14;84.76
70921;BME280;58572;48.110;19.838;2023-12-28T06:22:00;98491.03;;;3.03;84.97
70921;BME280;58572;48.110;19.838;2023-12-28T06:24:29;98487.38;;;3.23;83.72
70921;BME280;58572;48.110;19.838;2023-12-28T06:26:56;98485.13;;;3.19;83.96
70921;BME280;58572;48.110;19.838;2023-12-28T06:29:23;98438.75;;;2.81;84.16
70921;BME280;58572;48.110;19.838;2023-12-28T06:31:51;98496.03;;;3.25;84.29
70921;BME280;58572;48.110;19.838;2023-12-28T06:34:19;98492.31;;;3.44;83.25
70921;BME280;58572;48.110;19.838;2023-12-28T06:36:46;98454.75;;;2.94;83.86
70921;BME280;58572;48.110;19.838;2023-12-28T06:39:15;98501.19;;;3.26;83.67
70921;BME280;58572;48.110;19.838;2023-12-28T06:41:46;98508.56;;;3.31;83.49
70921;BME280;58572;48.110;19.838;2023-12-28T06:44:14;98462.09;;;3.05;83.70
70921;BME280;58572;48.110;19.838;2023-12-28T06:46:41;98498.44;;;3.33;83.36
70921;BME280;58572;48.110;19.838;2023-12-28T06:49:08;98500.38;;;3.26;84.32
70921;BME280;58572;48.110;19.838;2023-12-28T06:51:35;98500.03;;;3.15;84.52
70921;BME280;58572;48.110;19.838;2023-12-28T06:54:03;98505.75;;;3.44;83.49
70921;BME280;58572;48.110;19.838;2023-12-28T06:56:30;98507.75;;;3.30;84.01
70921;BME280;58572;48.110;19.838;2023-12-28T06:59:00;98505.53;;;3.45;83.54
70921;BME280;58572;48.110;19.838;2023-12-28T07:01:28;98498.16;;;4.44;78.52
70921;BME280;58572;48.110;19.838;2023-12-28T07:03:55;98507.88;;;3.60;81.57
70921;BME280;58572;48.110;19.838;2023-12-28T07:06:23;98510.41;;;3.55;82.67
70921;BME280;58572;48.110;19.838;2023-12-28T07:08:50;98516.41;;;3.32;82.96
70921;BME280;58572;48.110;19.838;2023-12-28T07:11:18;98502.19;;;3.68;82.46
70921;BME280;58572;48.110;19.838;2023-12-28T07:13:45;98508.88;;;4.14;80.77
70921;BME280;58572;48.110;19.838;2023-12-28T07:16:14;98507.84;;;3.97;80.53
70921;BME280;58572;48.110;19.838;2023-12-28T07:18:41;98516.66;;;3.49;83.01
70921;BME280;58572;48.110;19.838;2023-12-28T07:21:08;98493.53;;;3.84;81.04
70921;BME280;58572;48.110;19.838;2023-12-28T07:23:37;98528.63;;;3.71;81.49
70921;BME280;58572;48.110;19.838;2023-12-28T07:26:04;98494.44;;;3.17;83.63
70921;BME280;58572;48.110;19.838;2023-12-28T07:28:31;98534.13;;;3.40;83.46
70921;BME280;58572;48.110;19.838;2023-12-28T07:30:59;98531.31;;;3.71;82.75
70921;BME280;58572;48.110;19.838;2023-12-28T07:33:28;98531.31;;;4.08;81.39
70921;BME280;58572;48.110;19.838;2023-12-28T07:35:55;98536.47;;;3.91;80.95
70921;BME280;58572;48.110;19.838;2023-12-28T07:38:25;98532.66;;;3.80;80.81
70921;BME280;58572;48.110;19.838;2023-12-28T07:40:52;98531.44;;;4.13;79.67
70921;BME280;58572;48.110;19.838;2023-12-28T07:43:19;98547.22;;;3.55;81.67
70921;BME280;58572;48.110;19.838;2023-12-28T07:45:46;98546.75;;;3.39;83.07
70921;BME280;58572;48.110;19.838;2023-12-28T07:48:13;98533.69;;;3.43;83.56
70921;BME280;58572;48.110;19.838;2023-12-28T07:50:42;98535.59;;;3.36;83.84
70921;BME280;58572;48.110;19.838;2023-12-28T07:53:09;98530.97;;;3.25;83.94
70921;BME280;58572;48.110;19.838;2023-12-28T07:55:36;98523.44;;;3.33;84.56
70921;BME280;58572;48.110;19.838;2023-12-28T07:58:03;98507.13;;;3.53;84.41
70921;BME280;58572;48.110;19.838;2023-12-28T08:00:30;98509.28;;;3.63;83.36
70921;BME280;58572;48.110;19.838;2023-12-28T08:02:56;98507.94;;;3.90;82.36
70921;BME280;58572;48.110;19.838;2023-12-28T08:05:23;98502.03;;;4.00;82.39
70921;BME280;58572;48.110;19.838;2023-12-28T08:07:52;98503.59;;;4.07;82.38
70921;BME280;58572;48.110;19.838;2023-12-28T08:10:19;98509.50;;;3.79;82.46
70921;BME280;58572;48.110;19.838;2023-12-28T08:12:46;98511.53;;;3.84;82.85
70921;BME280;58572;48.110;19.838;2023-12-28T08:15:14;98522.03;;;3.49;84.77
70921;BME280;58572;48.110;19.838;2023-12-28T08:17:41;98508.25;;;3.64;83.78
70921;BME280;58572;48.110;19.838;2023-12-28T08:20:08;98518.44;;;3.37;85.60
70921;BME280;58572;48.110;19.838;2023-12-28T08:22:36;98517.72;;;3.48;85.38
70921;BME280;58572;48.110;19.838;2023-12-28T08:25:06;98525.19;;;3.64;84.95
70921;BME280;58572;48.110;19.838;2023-12-28T08:27:33;98521.91;;;3.62;84.83
70921;BME280;58572;48.110;19.838;2023-12-28T08:29:59;98519.28;;;3.74;84.21
70921;BME280;58572;48.110;19.838;2023-12-28T08:32:27;98514.38;;;3.71;85.21
70921;BME280;58572;48.110;19.838;2023-12-28T08:34:54;98523.53;;;3.63;85.13
70921;BME280;58572;48.110;19.838;2023-12-28T08:37:21;98519.66;;;3.77;84.74
70921;BME280;58572;48.110;19.838;2023-12-28T08:39:48;98482.78;;;3.66;84.55
70921;BME280;58572;48.110;19.838;2023-12-28T08:42:17;98506.81;;;3.79;84.78
70921;BME280;58572;48.110;19.838;2023-12-28T08:44:44;98506.75;;;3.86;84.85
70921;BME280;58572;48.110;19.838;2023-12-28T08:47:11;98517.78;;;3.96;83.88
70921;BME280;58572;48.110;19.838;2023-12-28T08:49:38;98520.88;;;3.81;84.66
70921;BME280;58572;48.110;19.838;2023-12-28T08:52:07;98517.41;;;3.93;83.99
70921;BME280;58572;48.110;19.838;2023-12-28T08:54:35;98518.53;;;4.03;83.58
70921;BME280;58572;48.110;19.838;2023-12-28T08:57:03;98521.47;;;3.83;84.76
70921;BME280;58572;48.110;19.838;2023-12-28T08:59:35;98514.13;;;3.91;84.58
70921;BME280;58572;48.110;19.838;2023-12-28T09:02:02;98521.69;;;4.00;84.64
70921;BME280;58572;48.110;19.838;2023-12-28T09:04:30;98521.44;;;4.02;84.33
70921;BME280;58572;48.110;19.838;2023-12-28T09:06:57;98509.88;;;4.20;84.06
70921;BME280;58572;48.110;19.838;2023-12-28T09:09:24;98510.84;;;4.25;83.92
70921;BME280;58572;48.110;19.838;2023-12-28T09:11:51;98501.81;;;4.20;83.63
70921;BME280;58572;48.110;19.838;2023-12-28T09:14:18;98480.72;;;4.16;83.80
70921;BME280;58572;48.110;19.838;2023-12-28T09:16:47;98485.56;;;4.26;84.19
70921;BME280;58572;48.110;19.838;2023-12-28T09:19:14;98492.59;;;4.27;84.43
70921;BME280;58572;48.110;19.838;2023-12-28T09:21:41;98467.78;;;4.25;83.99
70921;BME280;58572;48.110;19.838;2023-12-28T09:24:08;98475.34;;;4.46;83.32
70921;BME280;58572;48.110;19.838;2023-12-28T09:26:35;98471.72;;;4.53;82.81
70921;BME280;58572;48.110;19.838;2023-12-28T09:29:03;98466.22;;;4.47;83.62
70921;BME280;58572;48.110;19.838;2023-12-28T09:31:30;98463.69;;;4.76;82.57
70921;BME280;58572;48.110;19.838;2023-12-28T09:33:59;98456.38;;;4.41;83.84
70921;BME280;58572;48.110;19.838;2023-12-28T09:36:26;98454.66;;;4.70;82.99
70921;BME280;58572;48.110;19.838;2023-12-28T09:38:53;98454.34;;;4.78;82.56
70921;BME280;58572;48.110;19.838;2023-12-28T09:41:24;98446.59;;;4.82;83.41
70921;BME280;58572;48.110;19.838;2023-12-28T09:43:54;98445.44;;;4.78;82.69
70921;BME280;58572;48.110;19.838;2023-12-28T09:46:21;98435.84;;;4.82;83.07
70921;BME280;58572;48.110;19.838;2023-12-28T09:48:49;98436.31;;;5.02;81.61
70921;BME280;58572;48.110;19.838;2023-12-28T09:51:18;98433.50;;;5.09;82.36
70921;BME280;58572;48.110;19.838;2023-12-28T09:53:45;98433.84;;;4.89;83.56
70921;BME280;58572;48.110;19.838;2023-12-28T09:56:13;98427.06;;;5.10;83.19
70921;BME280;58572;48.110;19.838;2023-12-28T09:58:42;98421.31;;;5.06;82.40
70921;BME280;58572;48.110;19.838;2023-12-28T10:01:09;98429.16;;;5.08;83.25
70921;BME280;58572;48.110;19.838;2023-12-28T10:03:37;98428.00;;;4.92;84.01
70921;BME280;58572;48.110;19.838;2023-12-28T10:06:05;98415.94;;;5.06;83.05
70921;BME280;58572;48.110;19.838;2023-12-28T10:08:33;98390.41;;;4.97;83.19
70921;BME280;58572;48.110;19.838;2023-12-28T10:11:02;98409.03;;;5.22;82.72
70921;BME280;58572;48.110;19.838;2023-12-28T10:13:33;98404.47;;;5.23;81.88
70921;BME280;58572;48.110;19.838;2023-12-28T10:16:00;98394.31;;;5.53;81.73
70921;BME280;58572;48.110;19.838;2023-12-28T10:18:28;98386.75;;;5.78;78.92
70921;BME280;58572;48.110;19.838;2023-12-28T10:20:56;98390.41;;;5.72;79.96
70921;BME280;58572;48.110;19.838;2023-12-28T10:23:23;98393.41;;;5.48;80.96
70921;BME280;58572;48.110;19.838;2023-12-28T10:25:56;98393.56;;;5.69;79.81
70921;BME280;58572;48.110;19.838;2023-12-28T10:28:24;98392.97;;;5.39;82.24
70921;BME280;58572;48.110;19.838;2023-12-28T10:30:54;98381.53;;;6.46;78.78
70921;BME280;58572;48.110;19.838;2023-12-28T10:33:22;98396.69;;;6.18;78.60
70921;BME280;58572;48.110;19.838;2023-12-28T10:35:50;98392.81;;;5.86;80.50
70921;BME280;58572;48.110;19.838;2023-12-28T10:38:18;98385.88;;;6.30;79.58
70921;BME280;58572;48.110;19.838;2023-12-28T10:40:46;98382.66;;;5.76;81.90
70921;BME280;58572;48.110;19.838;2023-12-28T10:43:16;98378.78;;;6.12;80.76
70921;BME280;58572;48.110;19.838;2023-12-28T10:45:47;98371.59;;;6.18;80.87
70921;BME280;58572;48.110;19.838;2023-12-28T10:48:17;98370.31;;;5.92;80.79
70921;BME280;58572;48.110;19.838;2023-12-28T10:50:49;98364.34;;;6.52;79.16
70921;BME280;58572;48.110;19.838;2023-12-28T10:53:30;98363.25;;;5.91;81.18
70921;BME280;58572;48.110;19.838;2023-12-28T10:56:10;98363.53;;;6.51;79.42
70921;BME280;58572;48.110;19.838;2023-12-28T10:58:48;98361.56;;;6.47;79.79
70921;BME280;58572;48.110;19.838;2023-12-28T11:01:21;98344.25;;;5.86;80.81
70921;BME280;58572;48.110;19.838;2023-12-28T11:03:55;98354.03;;;6.65;78.44
70921;BME280;58572;48.110;19.838;2023-12-28T11:06:30;98354.19;;;6.25;80.26
70921;BME280;58572;48.110;19.838;2023-12-28T11:08:59;98345.63;;;6.00;81.41
70921;BME280;58572;48.110;19.838;2023-12-28T11:11:31;98307.59;;;5.44;81.84
70921;BME280;58572;48.110;19.838;2023-12-28T11:14:01;98345.97;;;6.20;80.69
70921;BME280;58572;48.110;19.838;2023-12-28T11:16:30;98337.91;;;5.92;82.14
70921;BME280;58572;48.110;19.838;2023-12-28T11:18:59;98335.34;;;6.14;82.07
70921;BME280;58572;48.110;19.838;2023-12-28T11:21:26;98337.13;;;5.51;83.86
70921;BME280;58572;48.110;19.838;2023-12-28T11:23:54;98334.25;;;5.98;82.52
70921;BME280;58572;48.110;19.838;2023-12-28T11:26:21;98331.63;;;6.48;80.19
70921;BME280;58572;48.110;19.838;2023-12-28T11:28:49;98330.00;;;6.02;80.78
70921;BME280;58572;48.110;19.838;2023-12-28T11:31:19;98329.28;;;6.23;81.57
70921;BME280;58572;48.110;19.838;2023-12-28T11:33:46;98319.28;;;6.07;81.02
70921;BME280;58572;48.110;19.838;2023-12-28T11:36:22;98318.06;;;5.98;81.74
70921;BME280;58572;48.110;19.838;2023-12-28T11:38:53;98294.44;;;6.05;80.59
70921;BME280;58572;48.110;19.838;2023-12-28T11:41:21;98307.84;;;5.71;83.21
70921;BME280;58572;48.110;19.838;2023-12-28T11:43:52;98286.06;;;5.90;82.03
70921;BME280;58572;48.110;19.838;2023-12-28T11:46:24;98289.28;;;6.20;81.93
70921;BME280;58572;48.110;19.838;2023-12-28T11:48:51;98285.28;;;6.23;81.57
70921;BME280;58572;48.110;19.838;2023-12-28T11:51:29;98283.09;;;6.36;80.42
70921;BME280;58572;48.110;19.838;2023-12-28T11:53:56;98281.31;;;6.25;80.05
70921;BME280;58572;48.110;19.838;2023-12-28T11:56:25;98274.91;;;5.69;83.44
70921;BME280;58572;48.110;19.838;2023-12-28T11:58:52;98280.09;;;5.59;83.64
70921;BME280;58572;48.110;19.838;2023-12-28T12:01:19;98277.25;;;5.66;83.27
70921;BME280;58572;48.110;19.838;2023-12-28T12:03:49;98277.16;;;5.61;84.12
70921;BME280;58572;48.110;19.838;2023-12-28T12:06:16;98279.22;;;5.99;82.53
70921;BME280;58572;48.110;19.838;2023-12-28T12:08:45;98280.38;;;5.74;83.23
70921;BME280;58572;48.110;19.838;2023-12-28T12:11:12;98284.06;;;5.68;83.62
70921;BME280;58572;48.110;19.838;2023-12-28T12:13:40;98269.16;;;5.66;83.74
70921;BME280;58572;48.110;19.838;2023-12-28T12:16:07;98278.56;;;5.63;84.63
70921;BME280;58572;48.110;19.838;2023-12-28T12:18:34;98270.00;;;5.66;83.58
70921;BME280;58572;48.110;19.838;2023-12-28T12:21:03;98269.56;;;6.20;81.84
70921;BME280;58572;48.110;19.838;2023-12-28T12:23:31;98276.38;;;6.05;82.18
70921;BME280;58572;48.110;19.838;2023-12-28T12:25:58;98259.78;;;6.30;81.58
70921;BME280;58572;48.110;19.838;2023-12-28T12:28:25;98226.53;;;5.80;82.49
70921;BME280;58572;48.110;19.838;2023-12-28T12:30:54;98252.63;;;5.91;82.87
70921;BME280;58572;48.110;19.838;2023-12-28T12:33:22;98251.41;;;5.98;82.41
70921;BME280;58572;48.110;19.838;2023-12-28T12:35:50;98252.47;;;5.97;83.61
70921;BME280;58572;48.110;19.838;2023-12-28T12:38:19;98250.84;;;6.13;81.71
70921;BME280;58572;48.110;19.838;2023-12-28T12:40:50;98245.03;;;6.04;82.24
70921;BME280;58572;48.110;19.838;2023-12-28T12:43:18;98235.69;;;5.78;82.84
70921;BME280;58572;48.110;19.838;2023-12-28T12:45:45;98254.47;;;5.73;83.02
70921;BME280;58572;48.110;19.838;2023-12-28T12:48:13;98252.13;;;5.49;84.28
70921;BME280;58572;48.110;19.838;2023-12-28T12:50:40;98243.72;;;5.45;84.41
70921;BME280;58572;48.110;19.838;2023-12-28T12:53:08;98237.63;;;5.66;84.16
70921;BME280;58572;48.110;19.838;2023-12-28T12:55:37;98238.72;;;5.37;85.22
70921;BME280;58572;48.110;19.838;2023-12-28T12:58:07;98242.09;;;5.61;84.27
70921;BME280;58572;48.110;19.838;2023-12-28T13:00:35;98231.59;;;5.76;83.36
70921;BME280;58572;48.110;19.838;2023-12-28T13:03:02;98235.16;;;5.65;84.44
70921;BME280;58572;48.110;19.838;2023-12-28T13:05:30;98226.63;;;5.39;84.78
70921;BME280;58572;48.110;19.838;2023-12-28T13:07:57;98220.63;;;5.66;84.01